createdAt,value
2023-05-05T00:00:15.891Z,5.60
2023-05-05T00:02:42.647Z,5.32
2023-05-05T00:05:09.520Z,4.88
2023-05-05T00:07:36.049Z,5.15
2023-05-05T00:10:02.717Z,5.05
2023-05-05T00:12:29.259Z,5.85
2023-05-05T00:14:57.079Z,5.60
2023-05-05T00:17:23.570Z,5.30
2023-05-05T00:19:49.984Z,5.30
2023-05-05T00:22:16.457Z,5.28
2023-05-05T00:24:42.856Z,5.80
2023-05-05T00:27:10.372Z,5.68
2023-05-05T00:29:37.810Z,5.53
2023-05-05T00:32:04.391Z,5.40
2023-05-05T00:34:30.857Z,5.45
2023-05-05T00:36:57.354Z,5.78
2023-05-05T00:39:24.230Z,5.63
2023-05-05T00:41:50.736Z,6.00
2023-05-05T00:44:17.132Z,6.35
2023-05-05T00:46:44.031Z,5.88
2023-05-05T00:49:12.122Z,6.47
2023-05-05T00:51:38.612Z,6.72
2023-05-05T00:54:05.709Z,6.05
2023-05-05T00:56:32.351Z,5.97
2023-05-05T00:58:59.382Z,6.30
2023-05-05T01:01:25.821Z,6.20
2023-05-05T01:03:52.522Z,6.00
2023-05-05T01:06:31.719Z,5.93
2023-05-05T01:09:19.801Z,5.78
2023-05-05T01:11:56.526Z,6.43
2023-05-05T01:14:31.925Z,5.63
2023-05-05T01:17:08.569Z,6.25
2023-05-05T01:19:58.763Z,5.60
2023-05-05T01:22:34.882Z,5.82
2023-05-05T01:25:35.074Z,6.50
2023-05-05T01:28:24.103Z,5.88
2023-05-05T01:31:08.864Z,6.32
2023-05-05T01:33:43.883Z,7.00
2023-05-05T01:36:22.455Z,7.07
2023-05-05T01:38:55.739Z,6.80
2023-05-05T01:41:28.343Z,6.72
2023-05-05T01:43:57.043Z,6.57
2023-05-05T01:46:24.558Z,6.65
2023-05-05T01:48:53.685Z,6.35
2023-05-05T01:51:23.160Z,6.28
2023-05-05T01:53:56.604Z,6.97
2023-05-05T01:56:25.085Z,6.28
2023-05-05T01:58:52.796Z,5.90
2023-05-05T02:01:24.821Z,6.50
2023-05-05T02:03:56.882Z,6.35
2023-05-05T02:06:24.649Z,6.35
2023-05-05T02:08:52.967Z,6.03
2023-05-05T02:11:21.696Z,5.95
2023-05-05T02:13:49.981Z,5.47
2023-05-05T02:16:18.571Z,5.97
2023-05-05T02:18:48.602Z,5.75
2023-05-05T02:21:17.881Z,5.43
2023-05-05T02:23:51.604Z,5.65
2023-05-05T02:26:21.817Z,5.57
2023-05-05T02:28:58.382Z,5.50
2023-05-05T02:31:27.696Z,5.05
2023-05-05T02:33:57.284Z,4.60
2023-05-05T02:36:29.336Z,4.57
2023-05-05T02:39:03.493Z,4.88
2023-05-05T02:41:38.237Z,4.85
2023-05-05T02:44:12.484Z,5.55
2023-05-05T02:46:39.383Z,4.97
2023-05-05T02:49:06.213Z,4.60
2023-05-05T02:51:32.711Z,4.82
2023-05-05T02:54:04.100Z,5.30
2023-05-05T02:56:42.908Z,4.65
2023-05-05T02:59:33.472Z,4.82
2023-05-05T03:02:08.150Z,4.85
2023-05-05T03:04:40.360Z,4.50
2023-05-05T03:07:12.244Z,4.47
2023-05-05T03:09:45.469Z,4.90
2023-05-05T03:12:20.209Z,4.82
2023-05-05T03:15:00.717Z,4.03
2023-05-05T03:17:31.632Z,4.95
2023-05-05T03:20:01.621Z,4.57
2023-05-05T03:22:31.319Z,4.30
2023-05-05T03:24:57.838Z,4.13
2023-05-05T03:27:24.582Z,4.40
2023-05-05T03:29:52.570Z,4.43
2023-05-05T03:32:19.883Z,4.20
2023-05-05T03:34:46.455Z,4.28
2023-05-05T03:37:12.962Z,3.70
2023-05-05T03:39:41.384Z,4.38
2023-05-05T03:42:09.350Z,4.38
2023-05-05T03:44:36.050Z,4.13
2023-05-05T03:47:02.561Z,4.13
2023-05-05T03:49:31.660Z,4.07
2023-05-05T03:51:58.401Z,4.30
2023-05-05T03:54:24.939Z,4.55
2023-05-05T03:56:51.836Z,4.75
2023-05-05T03:59:18.344Z,4.72
2023-05-05T04:01:46.536Z,4.07
2023-05-05T04:04:13.108Z,4.25
2023-05-05T04:06:39.589Z,4.47
2023-05-05T04:09:07.097Z,4.57
2023-05-05T04:11:33.566Z,4.45
2023-05-05T04:14:00.675Z,4.28
2023-05-05T04:16:28.991Z,4.30
2023-05-05T04:18:56.195Z,4.35
2023-05-05T04:21:22.739Z,4.35
2023-05-05T04:23:52.801Z,4.82
2023-05-05T04:26:20.936Z,4.32
2023-05-05T04:28:48.512Z,4.30
2023-05-05T04:31:16.182Z,4.35
2023-05-05T04:33:44.146Z,4.40
2023-05-05T04:36:11.088Z,4.18
2023-05-05T04:38:39.974Z,4.45
2023-05-05T04:41:06.919Z,4.30
2023-05-05T04:43:34.795Z,4.22
2023-05-05T04:46:01.707Z,4.22
2023-05-05T04:48:31.323Z,4.25
2023-05-05T04:50:57.751Z,4.75
2023-05-05T04:53:24.274Z,4.28
2023-05-05T04:55:50.751Z,4.63
2023-05-05T04:58:17.681Z,4.20
2023-05-05T05:00:45.109Z,4.28
2023-05-05T05:03:11.985Z,4.72
2023-05-05T05:05:38.561Z,4.85
2023-05-05T05:08:05.482Z,4.93
2023-05-05T05:10:32.157Z,4.60
2023-05-05T05:12:58.648Z,4.57
2023-05-05T05:15:26.703Z,4.53
2023-05-05T05:17:53.503Z,4.70
2023-05-05T05:20:20.925Z,4.90
2023-05-05T05:22:47.422Z,5.43
2023-05-05T05:25:19.967Z,4.47
2023-05-05T05:28:02.012Z,5.13
2023-05-05T05:30:33.312Z,4.65
2023-05-05T05:33:00.373Z,5.22
2023-05-05T05:35:27.799Z,5.00
2023-05-05T05:37:54.480Z,5.05
2023-05-05T05:40:21.085Z,5.65
2023-05-05T05:42:47.664Z,5.53
2023-05-05T05:45:14.225Z,5.68
2023-05-05T05:47:41.047Z,5.20
2023-05-05T05:50:08.709Z,5.43
2023-05-05T05:52:36.204Z,6.03
2023-05-05T05:55:05.812Z,6.47
2023-05-05T05:57:32.410Z,5.82
2023-05-05T06:00:05.313Z,6.50
2023-05-05T06:02:39.363Z,6.30
2023-05-05T06:05:10.482Z,6.43
2023-05-05T06:07:37.019Z,6.78
2023-05-05T06:10:18.399Z,6.22
2023-05-05T06:12:50.500Z,6.03
2023-05-05T06:15:17.542Z,6.28
2023-05-05T06:17:44.146Z,5.05
2023-05-05T06:20:11.317Z,5.15
2023-05-05T06:22:37.795Z,5.03
2023-05-05T06:25:04.657Z,4.40
2023-05-05T06:27:31.240Z,4.20
2023-05-05T06:29:57.650Z,4.35
2023-05-05T06:32:24.183Z,4.22
2023-05-05T06:34:50.740Z,4.00
2023-05-05T06:37:17.213Z,4.20
2023-05-05T06:39:43.772Z,3.85
2023-05-05T06:42:10.214Z,3.95
2023-05-05T06:44:36.688Z,4.25
2023-05-05T06:47:03.960Z,3.63
2023-05-05T06:49:30.436Z,3.88
2023-05-05T06:51:56.982Z,3.80
2023-05-05T06:54:23.601Z,3.72
2023-05-05T06:56:50.028Z,4.13
2023-05-05T06:59:16.545Z,3.92
2023-05-05T07:01:42.933Z,5.05
2023-05-05T07:04:09.436Z,4.35
2023-05-05T07:06:36.256Z,4.53
2023-05-05T07:09:04.300Z,3.80
2023-05-05T07:13:57.543Z,3.70
2023-05-05T07:16:25.273Z,4.13
2023-05-05T07:18:51.704Z,3.38
2023-05-05T07:21:18.170Z,3.30
2023-05-05T07:23:46.178Z,3.20
2023-05-05T07:26:12.792Z,2.85
2023-05-05T07:28:39.279Z,3.35
2023-05-05T07:31:05.907Z,3.20
2023-05-05T07:33:32.324Z,3.13
2023-05-05T07:35:58.812Z,3.08
2023-05-05T07:38:25.702Z,2.95
2023-05-05T07:40:52.105Z,2.60
2023-05-05T07:43:18.554Z,2.60
2023-05-05T07:45:45.095Z,3.03
2023-05-05T07:48:11.657Z,2.70
2023-05-05T07:50:38.149Z,2.22
2023-05-05T07:53:13.631Z,2.33
2023-05-05T07:55:40.652Z,2.33
2023-05-05T07:58:07.484Z,2.70
2023-05-05T08:00:34.057Z,2.92
2023-05-05T08:03:00.742Z,2.10
2023-05-05T08:05:27.358Z,2.40
2023-05-05T08:07:53.878Z,2.30
2023-05-05T08:10:22.335Z,2.58
2023-05-05T08:12:49.096Z,2.17
2023-05-05T08:15:16.008Z,2.33
2023-05-05T08:17:51.517Z,1.90
2023-05-05T08:20:19.520Z,2.20
2023-05-05T08:22:46.796Z,2.28
2023-05-05T08:25:13.837Z,1.85
2023-05-05T08:27:41.525Z,1.75
2023-05-05T08:30:10.786Z,1.60
2023-05-05T08:32:38.602Z,1.50
2023-05-05T08:35:06.571Z,2.00
2023-05-05T08:37:33.491Z,1.58
2023-05-05T08:40:01.471Z,1.52
2023-05-05T08:42:37.796Z,1.20
2023-05-05T08:45:07.580Z,1.17
2023-05-05T08:47:38.080Z,1.20
2023-05-05T08:50:06.811Z,1.25
2023-05-05T08:52:41.857Z,1.60
2023-05-05T08:55:24.739Z,1.70
2023-05-05T08:57:56.741Z,1.80
2023-05-05T09:00:26.886Z,1.63
2023-05-05T09:02:56.735Z,1.40
2023-05-05T09:05:23.471Z,1.65
2023-05-05T09:07:50.565Z,1.80
2023-05-05T09:10:18.041Z,1.52
2023-05-05T09:12:44.639Z,1.33
2023-05-05T09:15:13.643Z,1.50
2023-05-05T09:17:40.801Z,1.60
2023-05-05T09:20:12.444Z,1.42
2023-05-05T09:22:44.146Z,1.60
2023-05-05T09:25:12.633Z,1.30
2023-05-05T09:27:42.213Z,1.60
2023-05-05T09:30:11.141Z,1.50
2023-05-05T09:32:49.129Z,1.48
2023-05-05T09:35:16.858Z,1.50
2023-05-05T09:37:43.980Z,1.58
2023-05-05T09:40:11.861Z,1.48
2023-05-05T09:42:41.468Z,1.60
2023-05-05T09:45:22.919Z,1.50
2023-05-05T09:47:49.567Z,1.50
2023-05-05T09:50:20.889Z,2.17
2023-05-05T09:52:59.003Z,2.00
2023-05-05T09:55:25.905Z,1.90
2023-05-05T09:57:52.632Z,2.63
2023-05-05T10:00:19.670Z,2.42
2023-05-05T10:02:46.453Z,3.20
2023-05-05T10:05:18.155Z,3.42
2023-05-05T10:07:46.804Z,3.83
2023-05-05T10:10:16.200Z,3.53
2023-05-05T10:12:43.323Z,3.20
2023-05-05T10:15:11.625Z,2.05
2023-05-05T10:18:02.365Z,1.10
2023-05-05T10:20:33.308Z,1.50
2023-05-05T10:23:02.797Z,2.40
2023-05-05T10:25:31.447Z,2.38
2023-05-05T10:28:01.161Z,1.42
2023-05-05T10:30:34.279Z,1.40
2023-05-05T10:33:22.292Z,1.38
2023-05-05T10:35:53.806Z,1.10
2023-05-05T10:40:50.963Z,2.15
2023-05-05T10:43:17.874Z,1.00
2023-05-05T10:45:44.867Z,1.80
2023-05-05T10:48:27.355Z,1.10
2023-05-05T10:51:01.822Z,1.00
2023-05-05T10:56:05.829Z,1.10
2023-05-05T10:58:55.649Z,1.10
2023-05-05T11:01:35.642Z,1.55
2023-05-05T11:04:21.388Z,1.20
2023-05-05T11:07:13.456Z,1.23
2023-05-05T11:10:15.595Z,1.63
2023-05-05T11:12:52.410Z,1.30
2023-05-05T11:15:31.314Z,1.25
2023-05-05T11:17:59.430Z,1.35
2023-05-05T11:20:35.012Z,1.05
2023-05-05T11:23:05.208Z,1.23
2023-05-05T11:25:35.066Z,1.33
2023-05-05T11:28:08.322Z,1.50
2023-05-05T11:30:36.672Z,1.42
2023-05-05T11:33:25.714Z,1.30
2023-05-05T11:36:12.110Z,1.80
2023-05-05T11:39:00.143Z,2.20
2023-05-05T11:41:33.044Z,2.58
2023-05-05T11:44:12.446Z,3.10
2023-05-05T11:47:07.812Z,2.85
2023-05-05T11:49:38.908Z,3.05
2023-05-05T11:52:08.205Z,3.25
2023-05-05T11:54:36.224Z,3.25
2023-05-05T11:57:05.434Z,3.13
2023-05-05T11:59:32.606Z,2.95
2023-05-05T12:01:59.549Z,2.92
2023-05-05T12:04:26.592Z,3.35
2023-05-05T12:06:55.252Z,2.35
2023-05-05T12:09:23.079Z,2.97
2023-05-05T12:11:56.603Z,2.10
2023-05-05T12:14:25.432Z,2.10
2023-05-05T12:16:58.110Z,2.25
2023-05-05T12:19:29.738Z,2.30
2023-05-05T12:21:56.988Z,2.67
2023-05-05T12:24:23.656Z,2.47
2023-05-05T12:26:50.147Z,2.15
2023-05-05T12:29:29.434Z,2.40
2023-05-05T12:31:57.792Z,1.95
2023-05-05T12:34:24.507Z,2.08
2023-05-05T12:36:51.164Z,2.28
2023-05-05T12:39:17.854Z,2.17
2023-05-05T12:41:45.962Z,2.22
2023-05-05T12:44:12.545Z,2.28
2023-05-05T12:46:46.636Z,2.45
2023-05-05T12:49:13.341Z,2.58
2023-05-05T12:51:52.936Z,2.22
2023-05-05T12:54:19.612Z,2.60
2023-05-05T12:56:47.660Z,2.60
2023-05-05T12:59:23.374Z,2.97
2023-05-05T13:01:57.030Z,2.65
2023-05-05T13:04:25.159Z,2.92
2023-05-05T13:07:11.631Z,2.65
2023-05-05T13:09:38.601Z,3.20
2023-05-05T13:12:05.784Z,3.03
2023-05-05T13:14:32.405Z,3.10
2023-05-05T13:16:58.825Z,3.08
2023-05-05T13:19:25.653Z,3.30
2023-05-05T13:21:52.730Z,3.22
2023-05-05T13:24:31.067Z,3.20
2023-05-05T13:27:00.461Z,3.25
2023-05-05T13:29:31.140Z,3.45
2023-05-05T13:31:58.019Z,3.08
2023-05-05T13:34:25.684Z,2.97
2023-05-05T13:36:52.297Z,3.20
2023-05-05T13:39:20.363Z,2.80
2023-05-05T13:41:46.865Z,3.10
2023-05-05T13:44:13.979Z,2.67
2023-05-05T13:46:42.151Z,2.78
2023-05-05T13:49:08.656Z,2.50
2023-05-05T13:51:35.263Z,2.70
2023-05-05T13:54:01.965Z,2.47
2023-05-05T13:56:28.506Z,2.10
2023-05-05T13:58:55.000Z,2.30
2023-05-05T14:01:21.496Z,2.20
2023-05-05T14:03:48.076Z,1.52
2023-05-05T14:06:14.631Z,1.58
2023-05-05T14:08:41.484Z,1.63
2023-05-05T14:11:07.979Z,1.50
2023-05-05T14:13:34.598Z,1.70
2023-05-05T14:16:02.640Z,1.30
2023-05-05T14:18:29.634Z,1.30
2023-05-05T14:20:56.180Z,1.00
2023-05-05T14:23:22.635Z,1.00
2023-05-05T14:25:49.143Z,1.10
2023-05-05T14:28:15.995Z,1.23
2023-05-05T14:30:42.659Z,1.17
2023-05-05T14:33:09.146Z,1.40
2023-05-05T14:35:35.817Z,0.88
2023-05-05T14:38:02.355Z,1.10
2023-05-05T14:40:30.182Z,1.20
2023-05-05T14:42:57.663Z,1.15
2023-05-05T14:45:24.142Z,1.58
2023-05-05T14:47:50.870Z,1.30
2023-05-05T14:50:17.410Z,1.35
2023-05-05T14:52:44.393Z,1.42
2023-05-05T14:55:11.727Z,1.17
2023-05-05T14:57:38.744Z,1.10
2023-05-05T15:00:07.085Z,1.00
2023-05-05T15:02:33.761Z,1.05
2023-05-05T15:05:01.976Z,1.20
2023-05-05T15:07:29.052Z,1.90
2023-05-05T15:09:58.128Z,1.25
2023-05-05T15:12:25.919Z,1.08
2023-05-05T15:14:52.384Z,1.10
2023-05-05T15:17:18.855Z,1.02
2023-05-05T15:19:45.300Z,1.30
2023-05-05T15:22:11.769Z,0.90
2023-05-05T15:24:38.349Z,1.20
2023-05-05T15:27:05.079Z,1.40
2023-05-05T15:29:31.629Z,1.15
2023-05-05T15:31:58.183Z,1.20
2023-05-05T15:34:24.971Z,1.20
2023-05-05T15:36:51.508Z,1.27
2023-05-05T15:39:17.974Z,1.35
2023-05-05T15:41:44.427Z,1.33
2023-05-05T15:44:12.553Z,1.02
2023-05-05T15:46:41.660Z,1.17
2023-05-05T15:49:08.412Z,1.20
2023-05-05T15:51:35.035Z,0.70
2023-05-05T15:54:01.983Z,0.90
2023-05-05T15:56:29.295Z,1.00
2023-05-05T15:58:56.639Z,1.05
2023-05-05T16:01:23.243Z,1.00
2023-05-05T16:03:49.762Z,1.00
2023-05-05T16:06:16.294Z,1.20
2023-05-05T16:08:47.635Z,0.90
2023-05-05T16:11:14.357Z,1.00
2023-05-05T16:13:42.406Z,1.00
2023-05-05T16:16:08.905Z,1.05
2023-05-05T16:18:35.456Z,1.13
2023-05-05T16:21:02.554Z,1.10
2023-05-05T16:23:29.048Z,1.00
2023-05-05T16:25:55.556Z,1.10
2023-05-05T16:28:22.074Z,1.10
2023-05-05T16:30:48.616Z,1.23
2023-05-05T16:33:17.797Z,1.30
2023-05-05T16:35:45.719Z,1.00
2023-05-05T16:38:13.260Z,0.93
2023-05-05T16:40:40.095Z,1.10
2023-05-05T16:43:06.567Z,1.50
2023-05-05T16:45:33.082Z,1.40
2023-05-05T16:48:00.267Z,1.23
2023-05-05T16:50:26.749Z,0.98
2023-05-05T16:52:54.533Z,0.90
2023-05-05T16:55:20.951Z,0.80
2023-05-05T16:57:47.904Z,0.63
2023-05-05T17:00:15.443Z,0.80
2023-05-05T17:02:41.889Z,0.65
2023-05-05T17:05:09.091Z,0.73
2023-05-05T17:07:36.014Z,0.70
2023-05-05T17:10:03.851Z,0.68
2023-05-05T17:12:30.351Z,0.63
2023-05-05T17:14:56.794Z,0.60
2023-05-05T17:17:23.227Z,0.60
2023-05-05T17:19:50.002Z,0.50
2023-05-05T17:22:16.451Z,0.68
2023-05-05T17:24:43.072Z,0.60
2023-05-05T17:27:09.685Z,0.50
2023-05-05T17:29:40.703Z,0.60
2023-05-05T17:32:08.217Z,0.57
2023-05-05T17:34:34.858Z,1.00
2023-05-05T17:37:01.892Z,0.63
2023-05-05T17:39:28.591Z,0.80
2023-05-05T17:41:55.037Z,0.52
2023-05-05T17:44:21.647Z,0.88
2023-05-05T17:46:48.155Z,0.70
2023-05-05T17:49:14.617Z,0.57
2023-05-05T17:51:41.159Z,0.65
2023-05-05T17:54:07.554Z,0.60
2023-05-05T17:56:35.892Z,0.70
2023-05-05T17:59:02.389Z,0.90
2023-05-05T18:01:28.875Z,1.23
2023-05-05T18:03:55.691Z,0.90
2023-05-05T18:06:22.144Z,0.70
2023-05-05T18:08:49.260Z,0.80
2023-05-05T18:11:15.752Z,0.70
2023-05-05T18:13:43.115Z,1.10
2023-05-05T18:16:09.631Z,0.90
2023-05-05T18:18:36.278Z,0.90
2023-05-05T18:21:02.848Z,0.90
2023-05-05T18:23:29.345Z,1.02
2023-05-05T18:25:56.821Z,1.23
2023-05-05T18:28:23.266Z,0.90
2023-05-05T18:30:49.738Z,1.05
2023-05-05T18:33:16.200Z,0.93
2023-05-05T18:35:42.969Z,0.90
2023-05-05T18:38:09.459Z,0.93
2023-05-05T18:40:36.866Z,1.05
2023-05-05T18:43:03.559Z,1.20
2023-05-05T18:45:30.087Z,1.00
2023-05-05T18:47:56.685Z,1.10
2023-05-05T18:50:24.521Z,1.00
2023-05-05T18:52:52.638Z,1.10
2023-05-05T18:55:19.203Z,1.40
2023-05-05T18:57:45.786Z,1.08
2023-05-05T19:00:12.590Z,1.00
2023-05-05T19:02:39.116Z,1.30
2023-05-05T19:05:06.415Z,1.30
2023-05-05T19:07:35.848Z,1.40
2023-05-05T19:10:04.650Z,1.00
2023-05-05T19:12:31.301Z,1.60
2023-05-05T19:14:57.816Z,1.67
2023-05-05T19:17:24.443Z,1.58
2023-05-05T19:19:51.060Z,1.30
2023-05-05T19:22:17.663Z,1.38
2023-05-05T19:24:44.150Z,1.20
2023-05-05T19:27:15.435Z,1.50
2023-05-05T19:29:43.143Z,1.50
2023-05-05T19:32:09.883Z,1.30
2023-05-05T19:34:36.560Z,1.45
2023-05-05T19:37:03.326Z,1.75
2023-05-05T19:39:29.834Z,1.92
2023-05-05T19:41:56.244Z,2.30
2023-05-05T19:44:22.838Z,2.10
2023-05-05T19:46:50.189Z,2.15
2023-05-05T19:49:16.947Z,2.00
2023-05-05T19:51:43.743Z,2.42
2023-05-05T19:54:10.476Z,1.95
2023-05-05T19:56:37.081Z,2.22
2023-05-05T19:59:06.065Z,2.03
2023-05-05T20:01:33.889Z,2.47
2023-05-05T20:04:00.916Z,2.30
2023-05-05T20:06:27.611Z,2.20
2023-05-05T20:08:55.302Z,2.35
2023-05-05T20:11:22.223Z,1.98
2023-05-05T20:13:50.757Z,2.30
2023-05-05T20:16:18.481Z,1.92
2023-05-05T20:18:45.182Z,2.05
2023-05-05T20:21:11.809Z,1.90
2023-05-05T20:23:38.336Z,1.90
2023-05-05T20:26:05.411Z,2.08
2023-05-05T20:28:32.203Z,2.10
2023-05-05T20:31:00.462Z,2.20
2023-05-05T20:33:28.126Z,2.20
2023-05-05T20:35:54.867Z,2.50
2023-05-05T20:38:21.271Z,2.10
2023-05-05T20:40:47.860Z,2.13
2023-05-05T20:43:14.375Z,2.40
2023-05-05T20:45:41.151Z,2.55
2023-05-05T20:48:10.051Z,2.53
2023-05-05T20:53:08.505Z,2.22
2023-05-05T20:55:35.499Z,2.08
2023-05-05T20:58:02.242Z,2.47
2023-05-05T21:00:28.800Z,2.53
2023-05-05T21:02:56.773Z,2.60
2023-05-05T21:05:23.905Z,2.42
2023-05-05T21:07:51.011Z,2.50
2023-05-05T21:10:17.483Z,2.67
2023-05-05T21:12:44.053Z,3.13
2023-05-05T21:15:11.343Z,2.33
2023-05-05T21:17:38.359Z,2.53
2023-05-05T21:20:05.262Z,2.63
2023-05-05T21:22:31.854Z,2.55
2023-05-05T21:25:11.024Z,2.60
2023-05-05T21:27:37.587Z,2.60
2023-05-05T21:30:04.482Z,2.65
2023-05-05T21:32:31.414Z,2.63
2023-05-05T21:34:58.045Z,2.45
2023-05-05T21:37:24.509Z,2.33
2023-05-05T21:39:50.990Z,2.80
2023-05-05T21:42:17.467Z,2.78
2023-05-05T21:44:43.886Z,2.55
2023-05-05T21:47:10.308Z,3.15
2023-05-05T21:49:36.842Z,2.88
2023-05-05T21:52:03.342Z,2.55
2023-05-05T21:54:30.087Z,2.63
2023-05-05T21:56:56.539Z,3.05
2023-05-05T21:59:23.052Z,2.70
2023-05-05T22:01:49.596Z,2.50
2023-05-05T22:04:16.118Z,2.53
2023-05-05T22:06:42.549Z,3.22
2023-05-05T22:09:09.009Z,2.85
2023-05-05T22:11:35.611Z,2.80
2023-05-05T22:14:02.164Z,2.80
2023-05-05T22:16:28.954Z,2.92
2023-05-05T22:18:55.449Z,3.10
2023-05-05T22:21:22.091Z,3.15
2023-05-05T22:23:48.611Z,2.95
2023-05-05T22:26:15.244Z,3.00
2023-05-05T22:28:42.846Z,2.95
2023-05-05T22:31:09.329Z,3.10
2023-05-05T22:33:36.165Z,3.38
2023-05-05T22:36:02.657Z,3.05
2023-05-05T22:38:29.430Z,2.88
2023-05-05T22:40:55.989Z,3.15
2023-05-05T22:43:22.533Z,3.20
2023-05-05T22:45:49.125Z,3.20
2023-05-05T22:48:15.572Z,2.97
2023-05-05T22:50:42.152Z,2.97
2023-05-05T22:53:08.631Z,3.10
2023-05-05T22:55:35.207Z,3.15
2023-05-05T22:58:01.693Z,2.92
2023-05-05T23:00:28.289Z,3.38
2023-05-05T23:02:55.108Z,2.83
2023-05-05T23:05:22.891Z,3.33
2023-05-05T23:07:49.405Z,3.22
2023-05-05T23:10:16.330Z,3.58
2023-05-05T23:12:42.820Z,3.28
2023-05-05T23:15:09.966Z,3.63
2023-05-05T23:17:36.605Z,3.33
2023-05-05T23:20:04.227Z,3.00
2023-05-05T23:22:30.758Z,3.53
2023-05-05T23:24:57.257Z,3.38
2023-05-05T23:27:23.938Z,3.47
2023-05-05T23:29:51.682Z,4.15
2023-05-05T23:32:18.213Z,3.90
2023-05-05T23:34:44.699Z,3.95
2023-05-05T23:37:13.054Z,3.72
2023-05-05T23:39:39.738Z,4.07
2023-05-05T23:42:06.196Z,4.60
2023-05-05T23:44:32.670Z,5.03
2023-05-05T23:46:59.098Z,4.88
2023-05-05T23:49:26.390Z,5.00
2023-05-05T23:51:52.994Z,4.45
2023-05-05T23:54:19.419Z,5.20
2023-05-05T23:56:47.684Z,4.57
2023-05-05T23:59:14.183Z,4.63
